Pagina principale
METAR-TAF:

METAR-TAF

Aeroporti :

Aeroporto di Conakry

Conakry, Guinea

latitudine: 09-34N, longitudine: 013-37W, altezza: 26 m

Osservazione

Il bollettino è stato emesso 37 minuti fa, alle 18:00 UTC
Vento 10 kt da ovest
Temperature 31°C
Umidità 71%
Pressione 1009 hPa
Visibilità 10 km o più
nessuna nube inferiore a 1500 m e nessun cumulonembo

METAR: GUCY 191800Z 27010KT CAVOK 31/25 Q1009 NOSIG

Ora: 18:37 (18:37 UTC)

Previsione

Il bollettino è stato emesso 1 ora e 37 minuti fa, alle 17:00 UTC
Previsione valida dal 19 alle 18 UTC al 20 alle 24 UTC
Vento 6 kt da ovest/nord-ovest
Visibilità 10 km o più
Poco nuvoloso ad un'altezza di 1500 ft
Nubi sparse ad un'altezza di 12000 ft
Evoluzione graduale
dal 20 alle 02 UTC al 20 alle 06 UTC
Vento 2 kt da direzioni variabili
Nubi sparse ad un'altezza di 1500 ft
Nuvoloso ad un'altezza di 11000 ft

TAF: GUCY 191700Z 1918/2024 29006KT 9999 FEW015 SCT120 BECMG 2002/2006 VRB02KT SCT015 BKN110

Osservazioni e previsioni meteorologiche di più di 4000 aeroporti (messaggi METAR e TAF).

Le stazioni disponibili sono rappresentate dai dischi gialli e rossi sulla carta.

Puntare il mouse per vedere il nome della stazione.

Clicca sopra per visualizzare le osservazioni e previsioni meteorologiche.

Per cambiare la mappa : fare clic sui pulsanti verdi con una croce nera per ingrandire, il pulsante verde con un trattino per diminuire, o sulla freccia verde per le mappe adiacenti.


METAR-TAF: